createdAt,value
2019-03-08T00:01:36.101Z,99.90
2019-03-08T00:04:10.235Z,99.70
2019-03-08T00:06:43.477Z,99.90
2019-03-08T00:09:18.182Z,99.90
2019-03-08T00:11:51.436Z,99.90
2019-03-08T00:14:25.196Z,99.70
2019-03-08T00:16:58.532Z,99.40
2019-03-08T00:19:31.887Z,99.70
2019-03-08T00:22:05.470Z,99.90
2019-03-08T00:24:38.880Z,99.90
2019-03-08T00:27:12.443Z,99.90
2019-03-08T00:29:46.129Z,99.90
2019-03-08T00:32:20.735Z,99.70
2019-03-08T00:34:54.160Z,99.90
2019-03-08T00:37:27.489Z,99.90
2019-03-08T00:40:00.968Z,99.90
2019-03-08T00:42:35.507Z,99.90
2019-03-08T00:45:14.096Z,99.90
2019-03-08T00:47:47.698Z,99.70
2019-03-08T00:50:21.489Z,99.70
2019-03-08T00:52:54.947Z,99.50
2019-03-08T00:55:28.382Z,99.90
2019-03-08T00:58:01.830Z,99.90
2019-03-08T01:00:35.212Z,99.90
2019-03-08T01:03:10.203Z,99.90
2019-03-08T01:05:43.911Z,99.90
2019-03-08T01:08:17.451Z,99.90
2019-03-08T01:10:51.152Z,99.90
2019-03-08T01:13:24.746Z,99.80
2019-03-08T01:16:03.151Z,99.80
2019-03-08T01:18:36.794Z,99.90
2019-03-08T01:21:11.802Z,99.70
2019-03-08T01:23:46.015Z,99.90
2019-03-08T01:26:20.209Z,99.80
2019-03-08T01:28:53.814Z,99.60
2019-03-08T01:31:28.401Z,99.80
2019-03-08T01:34:02.726Z,99.70
2019-03-08T01:36:37.838Z,99.50
2019-03-08T01:39:11.440Z,99.60
2019-03-08T01:41:45.213Z,99.60
2019-03-08T01:44:18.696Z,99.30
2019-03-08T01:46:53.482Z,99.50
2019-03-08T01:49:26.759Z,99.40
2019-03-08T01:54:56.346Z,99.30
2019-03-08T01:57:30.167Z,98.80
2019-03-08T02:00:03.425Z,99.10
2019-03-08T02:02:38.262Z,99.10
2019-03-08T02:05:11.666Z,99.00
2019-03-08T02:07:45.382Z,99.00
2019-03-08T02:10:21.808Z,99.10
2019-03-08T02:12:55.475Z,98.80
2019-03-08T02:15:32.165Z,98.90
2019-03-08T02:18:06.260Z,99.00
2019-03-08T02:20:42.548Z,99.00
2019-03-08T02:23:16.686Z,99.00
2019-03-08T02:25:50.200Z,99.10
2019-03-08T02:28:24.835Z,98.90
2019-03-08T02:30:58.456Z,98.70
2019-03-08T02:33:33.276Z,98.90
2019-03-08T02:36:06.767Z,99.20
2019-03-08T02:38:40.571Z,99.10
2019-03-08T02:41:14.472Z,98.70
2019-03-08T02:43:48.148Z,98.90
2019-03-08T02:46:22.059Z,98.80
2019-03-08T02:48:59.857Z,98.60
2019-03-08T02:51:33.379Z,98.50
2019-03-08T02:54:07.161Z,98.20
2019-03-08T02:56:40.473Z,98.40
2019-03-08T02:59:14.627Z,98.20
2019-03-08T03:01:52.477Z,98.20
2019-03-08T03:04:27.282Z,97.90
2019-03-08T03:07:01.073Z,97.90
2019-03-08T03:09:34.563Z,97.90
2019-03-08T03:12:08.000Z,97.80
2019-03-08T03:14:42.119Z,97.40
2019-03-08T03:17:15.673Z,97.60
2019-03-08T03:19:49.351Z,96.70
2019-03-08T03:22:22.802Z,96.90
2019-03-08T03:24:56.506Z,97.00
2019-03-08T03:27:30.730Z,97.30
2019-03-08T03:30:04.601Z,96.00
2019-03-08T03:32:38.092Z,96.60
2019-03-08T03:35:11.886Z,96.70
2019-03-08T03:37:45.691Z,96.70
2019-03-08T03:40:22.912Z,96.50
2019-03-08T03:42:56.231Z,96.50
2019-03-08T03:45:29.762Z,96.50
2019-03-08T03:48:03.362Z,96.20
2019-03-08T03:50:37.003Z,96.30
2019-03-08T03:53:10.361Z,96.40
2019-03-08T03:55:43.935Z,96.40
2019-03-08T03:58:17.248Z,96.20
2019-03-08T04:00:51.293Z,96.10
2019-03-08T04:03:24.864Z,95.80
2019-03-08T04:05:59.113Z,95.90
2019-03-08T04:08:33.235Z,95.90
2019-03-08T04:11:08.177Z,95.80
2019-03-08T04:13:41.517Z,95.80
2019-03-08T04:16:15.575Z,95.90
2019-03-08T04:18:48.872Z,95.80
2019-03-08T04:21:22.296Z,95.70
2019-03-08T04:23:55.760Z,95.70
2019-03-08T04:26:29.276Z,95.40
2019-03-08T04:29:02.544Z,95.80
2019-03-08T04:31:36.795Z,95.00
2019-03-08T04:34:10.321Z,95.40
2019-03-08T04:36:44.140Z,95.00
2019-03-08T04:39:17.849Z,94.80
2019-03-08T04:41:51.800Z,95.00
2019-03-08T04:44:25.090Z,94.70
2019-03-08T04:46:58.810Z,94.60
2019-03-08T04:49:32.280Z,94.50
2019-03-08T04:52:06.762Z,94.70
2019-03-08T04:54:40.799Z,94.50
2019-03-08T04:57:14.585Z,94.40
2019-03-08T04:59:49.051Z,94.80
2019-03-08T05:02:22.671Z,94.70
2019-03-08T05:04:56.083Z,94.70
2019-03-08T05:07:29.610Z,94.80
2019-03-08T05:10:02.832Z,94.80
2019-03-08T05:12:37.192Z,94.70
2019-03-08T05:15:10.701Z,94.70
2019-03-08T05:17:44.364Z,94.40
2019-03-08T05:20:18.794Z,94.60
2019-03-08T05:22:53.231Z,94.60
2019-03-08T05:25:26.798Z,94.60
2019-03-08T05:28:00.517Z,94.30
2019-03-08T05:30:34.151Z,93.90
2019-03-08T05:33:07.926Z,94.20
2019-03-08T05:35:42.174Z,93.80
2019-03-08T05:38:15.927Z,93.80
2019-03-08T05:40:49.647Z,93.50
2019-03-08T05:43:23.567Z,93.90
2019-03-08T05:45:57.152Z,93.80
2019-03-08T05:48:30.764Z,93.80
2019-03-08T05:51:04.234Z,93.60
2019-03-08T05:53:38.108Z,93.70
2019-03-08T05:56:11.680Z,94.20
2019-03-08T05:58:45.606Z,94.20
2019-03-08T06:01:19.005Z,94.00
2019-03-08T06:03:52.526Z,94.10
2019-03-08T06:06:26.192Z,94.00
2019-03-08T06:08:59.812Z,93.70
2019-03-08T06:11:33.184Z,93.60
2019-03-08T06:14:07.592Z,93.60
2019-03-08T06:16:41.374Z,93.60
2019-03-08T06:19:15.104Z,93.50
2019-03-08T06:21:48.668Z,93.40
2019-03-08T06:24:22.380Z,93.70
2019-03-08T06:26:55.904Z,93.80
2019-03-08T06:29:30.151Z,93.00
2019-03-08T06:32:03.510Z,93.20
2019-03-08T06:34:37.447Z,93.30
2019-03-08T06:37:11.164Z,92.60
2019-03-08T06:39:44.677Z,92.90
2019-03-08T06:42:18.001Z,92.50
2019-03-08T06:44:52.430Z,92.80
2019-03-08T06:47:25.663Z,92.60
2019-03-08T06:49:59.165Z,93.20
2019-03-08T06:52:32.662Z,92.50
2019-03-08T06:55:06.764Z,92.90
2019-03-08T06:57:40.383Z,93.20
2019-03-08T07:00:39.965Z,93.40
2019-03-08T07:03:13.659Z,92.50
2019-03-08T07:05:47.116Z,93.20
2019-03-08T07:08:20.664Z,91.00
2019-03-08T07:10:54.582Z,93.20
2019-03-08T07:13:28.234Z,91.70
2019-03-08T07:16:01.807Z,92.80
2019-03-08T07:18:35.149Z,92.70
2019-03-08T07:21:22.404Z,92.60
2019-03-08T07:24:12.049Z,92.50
2019-03-08T07:26:46.759Z,92.70
2019-03-08T07:29:21.265Z,92.70
2019-03-08T07:31:56.077Z,92.00
2019-03-08T07:34:33.048Z,92.70
2019-03-08T07:37:12.084Z,92.80
2019-03-08T07:39:52.372Z,92.80
2019-03-08T07:42:44.985Z,92.40
2019-03-08T07:45:34.963Z,92.00
2019-03-08T07:48:24.770Z,91.90
2019-03-08T07:50:59.189Z,92.10
2019-03-08T07:53:50.961Z,91.70
2019-03-08T07:56:43.300Z,92.30
2019-03-08T07:59:36.537Z,91.80
2019-03-08T08:02:14.739Z,92.00
2019-03-08T08:04:49.756Z,92.10
2019-03-08T08:07:31.677Z,92.20
2019-03-08T08:10:16.676Z,92.50
2019-03-08T08:13:04.373Z,92.50
2019-03-08T08:15:55.324Z,92.40
2019-03-08T08:18:35.490Z,92.10
2019-03-08T08:21:26.241Z,91.80
2019-03-08T08:24:00.823Z,92.20
2019-03-08T08:26:41.743Z,92.10
2019-03-08T08:29:35.205Z,92.00
2019-03-08T08:32:08.947Z,92.00
2019-03-08T08:34:46.724Z,92.20
2019-03-08T08:37:24.614Z,92.00
2019-03-08T08:39:59.112Z,91.60
2019-03-08T08:42:38.325Z,91.60
2019-03-08T08:45:14.344Z,91.60
2019-03-08T08:47:52.052Z,91.40
2019-03-08T08:50:33.086Z,91.40
2019-03-08T08:53:23.804Z,91.80
2019-03-08T08:56:03.302Z,91.70
2019-03-08T08:58:41.015Z,91.60
2019-03-08T09:01:28.086Z,91.90
2019-03-08T09:04:05.975Z,91.80
2019-03-08T09:06:44.227Z,91.00
2019-03-08T09:09:19.351Z,91.20
2019-03-08T09:12:01.730Z,92.00
2019-03-08T09:14:38.463Z,91.50
2019-03-08T09:17:15.740Z,91.60
2019-03-08T09:19:50.992Z,91.10
2019-03-08T09:22:25.571Z,91.20
2019-03-08T09:25:00.335Z,90.90
2019-03-08T09:27:52.774Z,92.00
2019-03-08T09:30:27.756Z,91.40
2019-03-08T09:33:02.348Z,90.90
2019-03-08T09:35:37.102Z,90.90
2019-03-08T09:38:24.076Z,91.20
2019-03-08T09:41:02.507Z,91.10
2019-03-08T09:43:39.909Z,90.90
2019-03-08T09:46:18.924Z,91.00
2019-03-08T09:49:11.982Z,90.80
2019-03-08T09:51:46.926Z,91.10
2019-03-08T09:54:24.498Z,91.20
2019-03-08T09:56:59.299Z,91.10
2019-03-08T09:59:37.679Z,91.00
2019-03-08T10:02:18.849Z,90.90
2019-03-08T10:04:53.436Z,90.90
2019-03-08T10:07:28.352Z,90.90
2019-03-08T10:10:15.540Z,91.30
2019-03-08T10:12:59.237Z,90.90
2019-03-08T10:15:33.884Z,91.20
2019-03-08T10:18:26.733Z,91.40
2019-03-08T10:21:01.202Z,91.30
2019-03-08T10:23:44.951Z,91.10
2019-03-08T10:26:19.914Z,90.80
2019-03-08T10:28:57.935Z,90.90
2019-03-08T10:31:48.603Z,91.20
2019-03-08T10:34:23.367Z,90.80
2019-03-08T10:37:07.867Z,92.00
2019-03-08T10:39:59.214Z,90.30
2019-03-08T10:42:34.724Z,90.60
2019-03-08T10:45:11.152Z,90.60
2019-03-08T10:47:45.766Z,90.70
2019-03-08T10:50:23.820Z,90.30
2019-03-08T10:53:01.461Z,90.40
2019-03-08T10:55:52.267Z,90.50
2019-03-08T10:58:29.798Z,90.40
2019-03-08T11:01:04.900Z,90.60
2019-03-08T11:03:54.644Z,90.30
2019-03-08T11:06:30.774Z,90.20
2019-03-08T11:09:21.135Z,90.20
2019-03-08T11:12:11.909Z,91.80
2019-03-08T11:15:02.509Z,90.70
2019-03-08T11:17:50.343Z,90.80
2019-03-08T11:20:22.919Z,90.90
2019-03-08T11:22:59.003Z,91.20
2019-03-08T11:25:35.279Z,91.70
2019-03-08T11:28:25.804Z,92.20
2019-03-08T11:31:16.219Z,92.40
2019-03-08T11:33:57.103Z,92.70
2019-03-08T11:36:31.861Z,93.00
2019-03-08T11:39:22.479Z,93.20
2019-03-08T11:41:56.963Z,93.30
2019-03-08T11:44:32.020Z,93.30
2019-03-08T11:47:10.025Z,93.60
2019-03-08T11:49:47.837Z,93.30
2019-03-08T11:52:25.371Z,93.10
2019-03-08T11:55:06.209Z,93.00
2019-03-08T11:57:41.313Z,92.80
2019-03-08T12:00:22.902Z,92.60
2019-03-08T12:03:01.517Z,92.50
2019-03-08T12:05:49.859Z,92.50
2019-03-08T12:08:28.123Z,92.40
2019-03-08T12:11:11.598Z,92.50
2019-03-08T12:13:46.373Z,93.20
2019-03-08T12:16:37.416Z,92.00
2019-03-08T12:19:13.131Z,91.80
2019-03-08T12:21:54.031Z,92.30
2019-03-08T12:24:32.004Z,92.10
2019-03-08T12:27:09.701Z,92.30
2019-03-08T12:30:04.113Z,92.90
2019-03-08T12:32:54.000Z,91.80
2019-03-08T12:35:31.949Z,91.70
2019-03-08T12:38:06.903Z,91.50
2019-03-08T12:40:43.784Z,91.90
2019-03-08T12:43:33.529Z,91.40
2019-03-08T12:46:20.483Z,92.70
2019-03-08T12:49:04.488Z,91.30
2019-03-08T12:51:57.299Z,91.30
2019-03-08T12:54:48.308Z,91.50
2019-03-08T12:57:23.175Z,91.70
2019-03-08T13:00:14.067Z,91.30
2019-03-08T13:02:52.062Z,90.70
2019-03-08T13:05:44.430Z,90.70
2019-03-08T13:08:28.629Z,90.90
2019-03-08T13:11:02.007Z,90.70
2019-03-08T13:13:36.140Z,90.70
2019-03-08T13:16:09.601Z,91.10
2019-03-08T13:18:43.048Z,90.50
2019-03-08T13:21:16.374Z,90.90
2019-03-08T13:23:50.195Z,90.40
2019-03-08T13:26:23.454Z,90.60
2019-03-08T13:28:57.377Z,90.70
2019-03-08T13:31:30.662Z,90.70
2019-03-08T13:34:04.923Z,90.80
2019-03-08T13:36:38.170Z,90.60
2019-03-08T13:39:12.256Z,91.40
2019-03-08T13:41:45.540Z,90.70
2019-03-08T13:44:19.202Z,90.30
2019-03-08T13:46:52.474Z,90.20
2019-03-08T13:49:26.711Z,90.60
2019-03-08T13:52:00.036Z,90.60
2019-03-08T13:54:33.739Z,90.90
2019-03-08T13:57:07.043Z,90.10
2019-03-08T13:59:41.004Z,90.20
2019-03-08T14:02:14.243Z,90.40
2019-03-08T14:04:48.272Z,89.60
2019-03-08T14:07:21.523Z,89.50
2019-03-08T14:09:54.907Z,89.10
2019-03-08T14:12:28.170Z,89.70
2019-03-08T14:15:02.125Z,89.40
2019-03-08T14:17:36.660Z,88.90
2019-03-08T14:20:24.656Z,90.20
2019-03-08T14:22:58.207Z,89.60
2019-03-08T14:25:32.941Z,89.40
2019-03-08T14:28:06.353Z,89.90
2019-03-08T14:30:44.781Z,91.10
2019-03-08T14:33:18.203Z,90.10
2019-03-08T14:35:52.113Z,89.60
2019-03-08T14:38:27.938Z,90.00
2019-03-08T14:41:01.921Z,89.00
2019-03-08T14:43:52.485Z,90.90
2019-03-08T14:46:36.524Z,89.80
2019-03-08T14:49:09.928Z,90.40
2019-03-08T14:51:44.772Z,90.30
2019-03-08T14:54:18.514Z,90.60
2019-03-08T14:56:55.042Z,90.80
2019-03-08T14:59:29.603Z,90.60
2019-03-08T15:02:03.325Z,89.20
2019-03-08T15:04:38.291Z,90.00
2019-03-08T15:07:12.163Z,90.70
2019-03-08T15:09:46.326Z,89.70
2019-03-08T15:12:20.295Z,91.70
2019-03-08T15:14:54.196Z,90.90
2019-03-08T15:17:29.115Z,90.30
2019-03-08T15:20:03.147Z,91.00
2019-03-08T15:22:38.050Z,89.00
2019-03-08T15:25:14.101Z,87.90
2019-03-08T15:27:47.835Z,88.00
2019-03-08T15:30:21.966Z,88.10
2019-03-08T15:32:55.761Z,89.50
2019-03-08T15:35:31.355Z,90.30
2019-03-08T15:38:04.732Z,89.10
2019-03-08T15:40:38.633Z,89.00
2019-03-08T15:43:13.751Z,88.10
2019-03-08T15:45:47.260Z,88.70
2019-03-08T15:48:20.634Z,88.40
2019-03-08T15:50:54.444Z,88.40
2019-03-08T15:53:28.224Z,88.50
2019-03-08T15:56:01.688Z,88.00
2019-03-08T15:58:35.025Z,88.40
2019-03-08T16:01:09.004Z,89.00
2019-03-08T16:03:42.705Z,89.00
2019-03-08T16:06:16.561Z,90.10
2019-03-08T16:08:51.496Z,90.60
2019-03-08T16:11:24.897Z,90.80
2019-03-08T16:14:08.246Z,91.70
2019-03-08T16:16:34.045Z,93.10
2019-03-08T16:19:07.403Z,92.80
2019-03-08T16:21:41.025Z,93.30
2019-03-08T16:24:14.517Z,93.70
2019-03-08T16:26:48.164Z,94.10
2019-03-08T16:29:21.547Z,94.00
2019-03-08T16:31:56.217Z,94.00
2019-03-08T16:34:29.579Z,94.00
2019-03-08T16:37:06.969Z,94.00
2019-03-08T16:39:49.917Z,93.70
2019-03-08T16:42:30.595Z,94.20
2019-03-08T16:45:05.675Z,94.30
2019-03-08T16:47:43.840Z,94.30
2019-03-08T16:50:33.031Z,94.30
2019-03-08T16:53:07.679Z,94.30
2019-03-08T16:55:40.402Z,94.40
2019-03-08T16:58:24.003Z,94.30
2019-03-08T17:00:58.908Z,94.40
2019-03-08T17:03:33.865Z,94.40
2019-03-08T17:06:26.828Z,94.40
2019-03-08T17:09:13.619Z,94.30
2019-03-08T17:12:04.724Z,94.40
2019-03-08T17:14:48.543Z,94.50
2019-03-08T17:17:27.342Z,94.60
2019-03-08T17:20:02.335Z,94.60
2019-03-08T17:22:46.180Z,94.60
2019-03-08T17:25:23.617Z,94.60
2019-03-08T17:28:03.333Z,94.60
2019-03-08T17:30:53.261Z,94.50
2019-03-08T17:33:34.184Z,94.60
2019-03-08T17:36:11.878Z,94.60
2019-03-08T17:38:46.411Z,94.60
2019-03-08T17:41:24.178Z,94.50
2019-03-08T17:44:14.877Z,94.50
2019-03-08T17:46:56.143Z,94.60
2019-03-08T17:49:36.872Z,94.50
2019-03-08T17:52:23.535Z,94.50
2019-03-08T17:54:58.038Z,94.60
2019-03-08T17:57:48.440Z,94.70
2019-03-08T18:00:33.147Z,94.70
2019-03-08T18:03:08.377Z,94.80
2019-03-08T18:05:55.168Z,94.80
2019-03-08T18:08:35.958Z,94.80
2019-03-08T18:11:14.113Z,94.80
2019-03-08T18:13:51.910Z,94.80
2019-03-08T18:16:26.779Z,94.80
2019-03-08T18:19:04.656Z,94.90
2019-03-08T18:21:39.442Z,94.90
2019-03-08T18:24:30.915Z,94.90
2019-03-08T18:27:11.806Z,94.90
2019-03-08T18:29:58.830Z,95.00
2019-03-08T18:32:33.719Z,94.90
2019-03-08T18:35:22.037Z,95.00
2019-03-08T18:38:03.046Z,94.90
2019-03-08T18:40:37.600Z,94.90
2019-03-08T18:43:12.652Z,95.00
2019-03-08T18:46:05.858Z,95.00
2019-03-08T18:48:41.067Z,95.00
2019-03-08T18:51:28.647Z,95.00
2019-03-08T18:54:06.360Z,95.00
2019-03-08T18:56:52.806Z,95.10
2019-03-08T18:59:40.235Z,95.20
2019-03-08T19:02:15.340Z,95.20
2019-03-08T19:04:53.632Z,95.20
2019-03-08T19:07:28.600Z,95.30
2019-03-08T19:10:13.432Z,95.30
2019-03-08T19:13:00.837Z,95.30
2019-03-08T19:15:41.854Z,95.30
2019-03-08T19:18:25.492Z,95.30
2019-03-08T19:21:06.656Z,95.40
2019-03-08T19:23:44.119Z,95.40
2019-03-08T19:26:22.108Z,95.50
2019-03-08T19:29:12.923Z,95.50
2019-03-08T19:31:50.364Z,95.60
2019-03-08T19:34:36.429Z,95.60
2019-03-08T19:37:26.249Z,95.60
2019-03-08T19:40:06.509Z,95.50
2019-03-08T19:42:56.084Z,95.50
2019-03-08T19:45:37.434Z,95.50
2019-03-08T19:48:12.282Z,96.00
2019-03-08T19:51:04.239Z,95.80
2019-03-08T19:53:54.483Z,95.70
2019-03-08T19:56:29.462Z,95.70
2019-03-08T19:59:20.637Z,95.70
2019-03-08T20:02:01.805Z,95.70
2019-03-08T20:04:41.189Z,95.70
2019-03-08T20:07:19.595Z,95.70
2019-03-08T20:09:57.400Z,95.80
2019-03-08T20:12:32.273Z,95.80
2019-03-08T20:15:07.433Z,96.00
2019-03-08T20:17:42.653Z,96.20
2019-03-08T20:20:20.652Z,95.80
2019-03-08T20:23:11.503Z,95.90
2019-03-08T20:25:46.090Z,96.00
2019-03-08T20:28:24.136Z,96.00
2019-03-08T20:31:01.365Z,96.40
2019-03-08T20:33:39.069Z,96.00
2019-03-08T20:36:25.460Z,96.00
2019-03-08T20:39:12.580Z,96.00
2019-03-08T20:41:53.246Z,96.00
2019-03-08T20:44:30.937Z,96.00
2019-03-08T20:47:11.071Z,96.00
2019-03-08T20:49:44.847Z,96.00
2019-03-08T20:52:18.097Z,96.00
2019-03-08T20:54:52.054Z,96.00
2019-03-08T20:57:25.394Z,96.00
2019-03-08T20:59:58.905Z,96.00
2019-03-08T21:02:32.370Z,96.00
2019-03-08T21:05:06.930Z,96.40
2019-03-08T21:07:40.287Z,96.20
2019-03-08T21:10:17.709Z,96.10
2019-03-08T21:12:51.455Z,96.20
2019-03-08T21:15:25.697Z,96.20
2019-03-08T21:17:59.578Z,96.30
2019-03-08T21:20:33.183Z,96.20
2019-03-08T21:23:06.795Z,96.20
2019-03-08T21:25:40.538Z,96.40
2019-03-08T21:28:14.535Z,96.30
2019-03-08T21:30:48.296Z,96.30
2019-03-08T21:33:21.770Z,96.30
2019-03-08T21:35:55.656Z,96.30
2019-03-08T21:38:30.918Z,96.30
2019-03-08T21:41:04.863Z,96.30
2019-03-08T21:43:38.668Z,96.40
2019-03-08T21:46:12.596Z,96.30
2019-03-08T21:48:46.554Z,96.40
2019-03-08T21:51:20.054Z,96.40
2019-03-08T21:53:53.848Z,96.40
2019-03-08T21:56:27.606Z,96.40
2019-03-08T21:59:01.008Z,96.50
2019-03-08T22:01:34.410Z,96.40
2019-03-08T22:04:09.235Z,96.40
2019-03-08T22:06:43.083Z,96.50
2019-03-08T22:09:20.845Z,96.60
2019-03-08T22:11:55.075Z,96.60
2019-03-08T22:14:28.652Z,96.60
2019-03-08T22:17:02.864Z,96.60
2019-03-08T22:19:36.113Z,96.70
2019-03-08T22:22:10.293Z,96.70
2019-03-08T22:24:43.941Z,96.70
2019-03-08T22:27:17.483Z,96.80
2019-03-08T22:29:50.999Z,96.80
2019-03-08T22:32:24.304Z,96.70
2019-03-08T22:34:57.691Z,96.70
2019-03-08T22:37:31.824Z,96.80
2019-03-08T22:40:05.467Z,96.80
2019-03-08T22:42:40.044Z,96.80
2019-03-08T22:45:14.581Z,96.80
2019-03-08T22:47:48.521Z,96.80
2019-03-08T22:50:22.022Z,96.90
2019-03-08T22:52:57.243Z,96.90
2019-03-08T22:55:30.623Z,96.90
2019-03-08T22:58:04.579Z,96.90
2019-03-08T23:01:02.776Z,96.80
2019-03-08T23:03:37.874Z,96.90
2019-03-08T23:06:11.639Z,97.00
2019-03-08T23:08:45.634Z,96.90
2019-03-08T23:11:18.924Z,96.90
2019-03-08T23:13:52.694Z,97.00
2019-03-08T23:16:26.346Z,96.90
2019-03-08T23:19:00.249Z,97.00
2019-03-08T23:21:34.019Z,97.00
2019-03-08T23:24:07.657Z,96.90
2019-03-08T23:26:42.851Z,97.10
2019-03-08T23:29:17.872Z,97.10
2019-03-08T23:31:52.428Z,97.00
2019-03-08T23:34:25.827Z,97.00
2019-03-08T23:36:59.008Z,96.90
2019-03-08T23:39:32.580Z,97.00
2019-03-08T23:42:06.646Z,97.00
2019-03-08T23:44:40.150Z,97.30
2019-03-08T23:47:14.290Z,97.00
2019-03-08T23:49:48.668Z,96.90
2019-03-08T23:52:22.654Z,96.90
2019-03-08T23:54:56.372Z,96.90
2019-03-08T23:57:30.076Z,96.80
